Time;durP1;ratioP1;P1;durP2;ratioP2;P2;SDS_P1;SDS_P2;PMS_P1;PMS_P2;Temp;Humidity;BMP_temperature;BMP_pressure;BME280_temperature;BME280_humidity;BME280_pressure;Samples;Min_cycle;Max_cycle;Signal;HPM_P1;HPM_P2
2022/03/19 00:00:43;;;;;;;;;;;;;;;8.38;48.30;102179.59;4442235;32;20017;-71
2022/03/19 00:03:10;;;;;;;;;;;;;;;8.40;47.87;102181.38;4439827;32;19993;-74
2022/03/19 00:05:37;;;;;;;;;;;;;;;8.28;48.75;102182.34;4442850;32;20318;-71
2022/03/19 00:08:04;;;;;;;;;;;;;;;8.49;48.21;102182.84;4428651;32;20335;-71
2022/03/19 00:10:31;;;;;;;;;;;;;;;8.47;48.47;102178.38;4134722;32;10000877;-71
2022/03/19 00:12:59;;;;;;;;;;;;;;;8.58;47.50;102172.19;4405599;32;19981;-72
2022/03/19 00:15:26;;;;;;;;;;;;;;;8.52;47.77;102171.78;4442855;32;20038;-71
2022/03/19 00:17:54;;;;;;;;;;;;;;;8.49;47.99;102176.81;4443354;32;19989;-71
2022/03/19 00:20:21;;;;;;;;;;;;;;;8.37;48.22;102176.88;4443166;32;20388;-71
2022/03/19 00:22:47;;;;;;;;;;;;;;;8.49;48.21;102176.81;4443188;32;20771;-71
2022/03/19 00:25:14;;;;;;;;;;;;;;;8.55;48.00;102179.72;4439632;32;19977;-70
2022/03/19 00:27:41;;;;;;;;;;;;;;;8.40;48.15;102171.06;4443466;32;20030;-71
2022/03/19 00:30:09;;;;;;;;;;;;;;;8.45;47.59;102167.06;4436830;32;19973;-71
2022/03/19 00:32:36;;;;;;;;;;;;;;;8.49;47.76;102167.38;4443492;32;19985;-71
2022/03/19 00:35:03;;;;;;;;;;;;;;;8.51;47.62;102164.88;4442612;32;19997;-71
2022/03/19 00:37:32;;;;;;;;;;;;;;;8.38;47.27;102164.09;4443588;32;20608;-71
2022/03/19 00:39:59;;;;;;;;;;;;;;;8.40;47.19;102160.75;4443510;32;19985;-75
2022/03/19 00:42:26;;;;;;;;;;;;;;;8.55;46.82;102170.31;4443819;32;20030;-71
2022/03/19 00:44:52;;;;;;;;;;;;;;;8.56;46.60;102166.06;4442782;32;19993;-70
2022/03/19 00:47:19;;;;;;;;;;;;;;;8.40;47.31;102156.47;4442391;32;20794;-70
2022/03/19 00:49:46;;;;;;;;;;;;;;;8.58;46.40;102167.00;4443636;32;20015;-71
2022/03/19 00:52:13;;;;;;;;;;;;;;;8.56;46.62;102158.31;4442970;32;20060;-71
2022/03/19 00:54:40;;;;;;;;;;;;;;;8.68;46.83;102152.97;4443050;32;19996;-71
2022/03/19 00:57:07;;;;;;;;;;;;;;;8.51;47.62;102154.53;4443574;32;19993;-71
2022/03/19 00:59:33;;;;;;;;;;;;;;;8.52;47.45;102149.50;4429335;32;19978;-71
2022/03/19 01:02:00;;;;;;;;;;;;;;;8.41;48.17;102147.03;4443082;32;19991;-70
2022/03/19 01:04:27;;;;;;;;;;;;;;;8.51;47.56;102149.38;4442972;32;20401;-71
2022/03/19 01:06:54;;;;;;;;;;;;;;;8.44;47.32;102142.06;4441255;32;20354;-76
2022/03/19 01:09:21;;;;;;;;;;;;;;;8.49;47.71;102145.84;4442030;32;20000;-72
2022/03/19 01:11:48;;;;;;;;;;;;;;;8.40;48.38;102140.09;4443282;32;20021;-71
2022/03/19 01:14:15;;;;;;;;;;;;;;;8.57;47.62;102142.00;4443542;32;19988;-71
2022/03/19 01:16:42;;;;;;;;;;;;;;;8.58;47.38;102143.78;4444847;32;19981;-71
2022/03/19 01:19:09;;;;;;;;;;;;;;;8.56;47.61;102137.66;4454970;32;20329;-71
2022/03/19 01:21:36;;;;;;;;;;;;;;;8.63;47.68;102138.91;4460377;32;20821;-71
2022/03/19 01:24:03;;;;;;;;;;;;;;;8.66;47.82;102140.00;4460479;32;20003;-74
2022/03/19 01:26:30;;;;;;;;;;;;;;;8.68;47.65;102138.41;4459550;32;20037;-72
2022/03/19 01:28:57;;;;;;;;;;;;;;;8.45;48.05;102136.09;4446288;32;20878;-71
2022/03/19 01:31:42;;;;;;;;;;;;;;;8.53;47.91;102135.78;4460812;32;20718;-71
2022/03/19 01:34:09;;;;;;;;;;;;;;;8.36;48.25;102129.56;4460140;32;19985;-71
2022/03/19 01:36:36;;;;;;;;;;;;;;;8.44;48.28;102131.75;4460594;32;20064;-73
2022/03/19 01:39:02;;;;;;;;;;;;;;;8.51;47.95;102123.56;4460875;32;20003;-70
2022/03/19 01:41:29;;;;;;;;;;;;;;;8.46;48.47;102114.66;4460458;32;19985;-70
2022/03/19 01:43:56;;;;;;;;;;;;;;;8.20;48.65;102115.56;4460782;32;20364;-71
2022/03/19 01:46:23;;;;;;;;;;;;;;;8.47;48.29;102112.16;4458845;32;20037;-72
2022/03/19 01:48:50;;;;;;;;;;;;;;;8.35;48.66;102107.09;4459104;32;19977;-71
2022/03/19 01:51:16;;;;;;;;;;;;;;;8.27;48.69;102116.06;4459062;32;20029;-71
2022/03/19 01:53:43;;;;;;;;;;;;;;;8.17;49.05;102111.16;4460402;32;19993;-71
2022/03/19 01:56:10;;;;;;;;;;;;;;;7.99;49.51;102110.88;4460061;32;19985;-72
2022/03/19 01:58:37;;;;;;;;;;;;;;;7.97;49.18;102104.72;4460482;32;20004;-71
2022/03/19 02:01:04;;;;;;;;;;;;;;;8.19;48.50;102106.97;4445686;32;19993;-71
2022/03/19 02:03:32;;;;;;;;;;;;;;;8.10;48.37;102099.56;4460082;32;19999;-71
2022/03/19 02:06:00;;;;;;;;;;;;;;;8.23;47.97;102101.22;4459112;32;19995;-71
2022/03/19 02:08:28;;;;;;;;;;;;;;;8.22;47.69;102089.09;4445368;32;20003;-72
2022/03/19 02:10:55;;;;;;;;;;;;;;;8.02;48.26;102094.72;4459272;32;19976;-71
2022/03/19 02:13:21;;;;;;;;;;;;;;;8.11;48.07;102093.59;4460551;32;20003;-71
2022/03/19 02:15:48;;;;;;;;;;;;;;;8.05;48.34;102084.59;4460472;32;20034;-70
2022/03/19 02:18:15;;;;;;;;;;;;;;;7.92;48.42;102094.13;4459088;32;19995;-71
2022/03/19 02:20:42;;;;;;;;;;;;;;;7.96;47.97;102089.16;4460590;32;19985;-71
2022/03/19 02:26:05;;;;;;;;;;;;;;;7.89;47.98;102091.34;4420263;32;19990;-71
2022/03/19 02:28:31;;;;;;;;;;;;;;;7.79;47.83;102094.16;4412669;32;20035;-71
2022/03/19 02:30:58;;;;;;;;;;;;;;;7.72;47.99;102094.53;4414260;32;20596;-71
2022/03/19 02:33:25;;;;;;;;;;;;;;;7.70;48.21;102091.00;4412016;32;19978;-72
2022/03/19 02:35:52;;;;;;;;;;;;;;;7.83;47.68;102088.38;4413872;32;20194;-72
2022/03/19 02:38:18;;;;;;;;;;;;;;;7.72;47.57;102079.06;4413472;32;19974;-71
2022/03/19 02:40:45;;;;;;;;;;;;;;;7.65;48.38;102079.47;4413978;32;20067;-71
2022/03/19 02:43:12;;;;;;;;;;;;;;;7.62;48.56;102084.44;4412190;32;20804;-71
2022/03/19 02:45:40;;;;;;;;;;;;;;;7.67;48.02;102090.78;4426407;32;20028;-70
2022/03/19 02:48:07;;;;;;;;;;;;;;;7.59;48.04;102082.53;4444095;32;20720;-71
2022/03/19 02:50:35;;;;;;;;;;;;;;;7.67;47.85;102081.37;4443312;32;20034;-71
2022/03/19 02:53:06;;;;;;;;;;;;;;;7.59;48.06;102076.50;4444685;32;20034;-72
2022/03/19 02:55:34;;;;;;;;;;;;;;;7.23;48.53;102075.91;4444610;32;19977;-71
2022/03/19 02:58:01;;;;;;;;;;;;;;;7.49;48.13;102079.28;4445229;32;20070;-71
2022/03/19 03:00:28;;;;;;;;;;;;;;;7.40;47.90;102080.50;4444184;32;20779;-71
2022/03/19 03:02:56;;;;;;;;;;;;;;;7.20;48.59;102075.72;4444524;32;21095;-71
2022/03/19 03:05:23;;;;;;;;;;;;;;;7.32;48.33;102081.66;4444827;32;20012;-70
2022/03/19 03:07:49;;;;;;;;;;;;;;;7.19;48.56;102073.94;4444505;32;20018;-71
2022/03/19 03:10:17;;;;;;;;;;;;;;;7.21;48.76;102072.34;4444473;32;19985;-70
2022/03/19 03:12:44;;;;;;;;;;;;;;;7.25;48.91;102074.34;4443306;32;20003;-71
2022/03/19 03:15:11;;;;;;;;;;;;;;;7.07;49.68;102074.00;4444229;32;20036;-70
2022/03/19 03:17:38;;;;;;;;;;;;;;;7.36;48.64;102069.88;4442584;32;19996;-70
2022/03/19 03:20:05;;;;;;;;;;;;;;;7.39;48.59;102068.38;4444419;32;19982;-71
2022/03/19 03:22:31;;;;;;;;;;;;;;;7.16;49.71;102068.59;4430416;32;20778;-71
2022/03/19 03:24:59;;;;;;;;;;;;;;;7.16;49.61;102073.75;4444110;32;20044;-75
2022/03/19 03:27:25;;;;;;;;;;;;;;;7.08;49.98;102069.75;4410349;32;20005;-73
2022/03/19 03:29:52;;;;;;;;;;;;;;;7.04;49.92;102072.91;4440440;32;20346;-71
2022/03/19 03:32:19;;;;;;;;;;;;;;;7.09;50.26;102076.72;4437897;32;20373;-71
2022/03/19 03:34:46;;;;;;;;;;;;;;;7.18;49.79;102060.19;4432596;32;20902;-71
2022/03/19 03:37:13;;;;;;;;;;;;;;;7.18;49.82;102067.00;4455494;32;19991;-70
2022/03/19 03:39:40;;;;;;;;;;;;;;;7.27;49.58;102071.84;4459922;32;19992;-71
2022/03/19 03:42:07;;;;;;;;;;;;;;;6.98;50.50;102074.28;4459741;32;20365;-71
2022/03/19 03:44:34;;;;;;;;;;;;;;;7.26;49.45;102065.81;4459502;32;19997;-71
2022/03/19 03:47:01;;;;;;;;;;;;;;;7.14;49.78;102059.84;4459309;32;19977;-72
2022/03/19 03:49:28;;;;;;;;;;;;;;;7.09;50.01;102067.28;4458113;32;20004;-71
2022/03/19 03:51:56;;;;;;;;;;;;;;;7.11;50.11;102072.53;4459331;32;20018;-72
2022/03/19 03:54:23;;;;;;;;;;;;;;;7.25;49.41;102073.47;4460278;32;20877;-71
2022/03/19 03:56:50;;;;;;;;;;;;;;;6.89;50.60;102068.56;4458935;32;20004;-71
2022/03/19 03:59:16;;;;;;;;;;;;;;;7.13;49.99;102058.09;4459862;32;20347;-71
2022/03/19 04:01:44;;;;;;;;;;;;;;;7.13;50.26;102063.22;4459891;32;19993;-72
2022/03/19 04:04:11;;;;;;;;;;;;;;;7.16;50.09;102060.84;4458841;32;20444;-71
2022/03/19 04:06:38;;;;;;;;;;;;;;;7.10;50.48;102063.03;4149132;32;10004100;-72
2022/03/19 04:09:05;;;;;;;;;;;;;;;7.25;49.90;102061.47;4444189;32;20352;-71
2022/03/19 04:11:32;;;;;;;;;;;;;;;7.31;49.59;102064.44;4444268;32;19981;-71
2022/03/19 04:13:59;;;;;;;;;;;;;;;7.40;49.44;102058.97;4451424;32;19980;-73
2022/03/19 04:16:26;;;;;;;;;;;;;;;7.11;50.91;102057.06;4459759;32;20040;-71
2022/03/19 04:18:54;;;;;;;;;;;;;;;7.07;50.96;102052.53;4416532;32;20017;-70
2022/03/19 04:21:21;;;;;;;;;;;;;;;7.22;50.64;102044.13;4382800;32;20041;-71
2022/03/19 04:23:47;;;;;;;;;;;;;;;7.20;50.56;102049.94;4306967;32;21137;-70
2022/03/19 04:26:15;;;;;;;;;;;;;;;7.13;50.82;102047.78;4447951;32;20002;-70
2022/03/19 04:28:41;;;;;;;;;;;;;;;6.88;51.74;102056.44;4459581;32;20025;-70
2022/03/19 04:31:08;;;;;;;;;;;;;;;7.21;50.89;102047.50;4457652;32;20075;-72
2022/03/19 04:33:35;;;;;;;;;;;;;;;7.21;50.91;102046.56;4459550;32;20353;-70
2022/03/19 04:38:47;;;;;;;;;;;;;;;7.09;51.24;102045.81;4458883;32;19968;-71
2022/03/19 04:41:14;;;;;;;;;;;;;;;7.37;50.08;102054.53;4458749;32;20152;-71
2022/03/19 04:43:41;;;;;;;;;;;;;;;7.22;50.51;102048.38;4459479;32;20040;-71
2022/03/19 04:46:08;;;;;;;;;;;;;;;7.17;51.02;102049.75;4453191;32;20368;-72
2022/03/19 04:48:35;;;;;;;;;;;;;;;7.26;50.80;102050.34;4460170;32;19992;-71
2022/03/19 04:51:01;;;;;;;;;;;;;;;7.17;50.83;102055.78;4460848;32;19993;-71
2022/03/19 04:53:28;;;;;;;;;;;;;;;7.48;50.60;102057.78;4461175;32;20031;-72
2022/03/19 04:55:55;;;;;;;;;;;;;;;7.37;50.68;102059.69;4460957;32;19995;-72
2022/03/19 04:58:22;;;;;;;;;;;;;;;7.28;50.46;102053.06;4458813;32;19981;-72
2022/03/19 05:00:49;;;;;;;;;;;;;;;7.24;50.76;102062.22;4461056;32;19988;-72
2022/03/19 05:03:16;;;;;;;;;;;;;;;7.36;50.29;102063.03;4461310;32;19985;-71
2022/03/19 05:05:43;;;;;;;;;;;;;;;7.21;50.88;102067.19;4460493;32;20028;-72
2022/03/19 05:08:10;;;;;;;;;;;;;;;7.67;49.82;102065.00;4460478;32;19995;-72
2022/03/19 05:13:22;;;;;;;;;;;;;;;7.44;50.08;102066.12;4460272;32;20026;-71
2022/03/19 05:15:49;;;;;;;;;;;;;;;7.44;49.93;102067.00;4458617;32;20364;-71
2022/03/19 05:18:16;;;;;;;;;;;;;;;7.55;49.50;102065.13;4446476;32;19985;-71
2022/03/19 05:20:43;;;;;;;;;;;;;;;7.67;49.95;102065.91;4460334;32;19996;-73
2022/03/19 05:23:10;;;;;;;;;;;;;;;7.52;50.15;102066.59;4460563;32;20046;-71
2022/03/19 05:25:37;;;;;;;;;;;;;;;7.63;50.19;102069.09;4460216;32;19995;-71
2022/03/19 05:28:04;;;;;;;;;;;;;;;7.25;51.61;102066.63;4459455;32;20030;-71
2022/03/19 05:30:49;;;;;;;;;;;;;;;7.60;50.32;102065.44;4458763;32;20294;-71
2022/03/19 05:33:16;;;;;;;;;;;;;;;7.41;51.14;102061.66;4460836;32;20003;-74
2022/03/19 05:35:44;;;;;;;;;;;;;;;7.51;50.93;102068.28;4403088;32;20063;-72
2022/03/19 05:38:12;;;;;;;;;;;;;;;7.66;50.13;102063.25;4454399;32;20005;-71
2022/03/19 05:40:39;;;;;;;;;;;;;;;7.70;50.09;102060.06;4459971;32;19993;-72
2022/03/19 05:43:06;;;;;;;;;;;;;;;7.67;50.47;102062.44;4460371;32;19999;-71
2022/03/19 05:45:32;;;;;;;;;;;;;;;7.69;50.68;102063.44;4460836;32;19981;-71
2022/03/19 05:48:01;;;;;;;;;;;;;;;7.79;50.31;102059.75;4459352;32;20061;-72
2022/03/19 05:50:28;;;;;;;;;;;;;;;7.97;49.59;102057.41;4459352;32;20242;-74
2022/03/19 05:52:55;;;;;;;;;;;;;;;8.21;48.57;102056.34;4432530;32;20006;-73
2022/03/19 05:55:22;;;;;;;;;;;;;;;7.98;49.43;102056.63;4460212;32;19988;-72
2022/03/19 05:57:49;;;;;;;;;;;;;;;7.94;49.10;102060.69;4446609;32;19976;-71
2022/03/19 06:00:16;;;;;;;;;;;;;;;8.02;49.39;102059.50;4460483;32;19976;-72
2022/03/19 06:02:44;;;;;;;;;;;;;;;7.90;50.07;102063.87;4459293;32;20317;-71
2022/03/19 06:05:16;;;;;;;;;;;;;;;8.06;49.70;102068.31;4445711;32;19989;-71
2022/03/19 06:07:42;;;;;;;;;;;;;;;8.16;49.23;102068.94;4445225;32;20037;-73
2022/03/19 06:10:09;;;;;;;;;;;;;;;8.17;49.39;102069.88;4459945;32;20023;-72
2022/03/19 06:12:36;;;;;;;;;;;;;;;8.28;49.27;102063.66;4459776;32;19984;-72
2022/03/19 06:15:03;;;;;;;;;;;;;;;8.43;49.04;102078.34;4451573;32;19996;-71
2022/03/19 06:17:30;;;;;;;;;;;;;;;8.56;48.21;102070.53;4449996;32;19969;-76
2022/03/19 06:19:57;;;;;;;;;;;;;;;8.56;48.12;102070.53;4444293;32;20424;-72
2022/03/19 06:22:24;;;;;;;;;;;;;;;8.61;47.80;102066.53;4443700;32;20311;-72
2022/03/19 06:24:51;;;;;;;;;;;;;;;8.66;47.66;102070.28;4459036;32;20004;-70
2022/03/19 06:27:18;;;;;;;;;;;;;;;8.69;47.73;102083.38;4459844;32;20018;-73
2022/03/19 06:29:44;;;;;;;;;;;;;;;8.51;48.58;102078.00;4445536;32;19985;-71
2022/03/19 06:32:11;;;;;;;;;;;;;;;8.70;47.77;102079.97;4411167;32;19989;-71
2022/03/19 06:34:38;;;;;;;;;;;;;;;8.91;46.80;102074.31;4443305;32;19999;-69
2022/03/19 06:37:21;;;;;;;;;;;;;;;8.96;45.79;102072.88;4444782;32;19973;-70
2022/03/19 06:39:53;;;;;;;;;;;;;;;8.98;45.63;102076.47;4434125;32;19989;-70
2022/03/19 06:42:20;;;;;;;;;;;;;;;8.78;45.16;102068.44;4442518;32;20389;-70
2022/03/19 06:44:47;;;;;;;;;;;;;;;8.61;45.71;102063.94;4444668;32;19984;-73
2022/03/19 06:47:14;;;;;;;;;;;;;;;8.79;45.18;102072.78;4442990;32;19985;-76
2022/03/19 06:49:41;;;;;;;;;;;;;;;8.34;45.33;102079.53;4443779;32;20039;-72
2022/03/19 06:52:08;;;;;;;;;;;;;;;8.70;45.33;102074.81;4437300;32;19985;-73
2022/03/19 06:54:35;;;;;;;;;;;;;;;8.71;44.82;102073.13;4430243;32;20405;-72
2022/03/19 06:57:01;;;;;;;;;;;;;;;9.02;43.83;102078.41;4444624;32;19989;-73
2022/03/19 06:59:28;;;;;;;;;;;;;;;8.88;44.76;102079.31;4429876;32;19985;-72
2022/03/19 07:01:55;;;;;;;;;;;;;;;8.87;44.46;102082.66;4444842;32;19995;-72
2022/03/19 07:04:23;;;;;;;;;;;;;;;8.82;44.81;102080.72;4430721;32;19980;-71
2022/03/19 07:06:50;;;;;;;;;;;;;;;9.03;44.48;102075.94;4444031;32;19977;-72
2022/03/19 07:09:33;;;;;;;;;;;;;;;9.26;43.69;102074.66;4440106;32;20259;-72
2022/03/19 07:12:00;;;;;;;;;;;;;;;9.26;42.88;102074.66;4443932;32;20009;-72
2022/03/19 07:14:27;;;;;;;;;;;;;;;9.57;42.52;102076.38;4444635;32;20458;-72
2022/03/19 07:16:55;;;;;;;;;;;;;;;9.88;42.30;102072.94;4443988;32;19973;-72
2022/03/19 07:19:22;;;;;;;;;;;;;;;9.90;40.83;102076.50;4444581;32;20034;-71
2022/03/19 07:21:49;;;;;;;;;;;;;;;9.81;40.03;102070.81;4444298;32;20255;-71
2022/03/19 07:24:17;;;;;;;;;;;;;;;10.04;40.11;102078.13;4444187;32;20404;-72
2022/03/19 07:26:43;;;;;;;;;;;;;;;10.16;40.04;102076.19;4444653;32;19987;-72
2022/03/19 07:29:10;;;;;;;;;;;;;;;10.19;39.76;102078.94;4444903;32;19981;-72
2022/03/19 07:31:37;;;;;;;;;;;;;;;10.31;38.83;102081.34;4305652;32;20023;-75
2022/03/19 07:34:04;;;;;;;;;;;;;;;10.25;39.01;102074.09;4237322;32;19980;-75
2022/03/19 07:36:31;;;;;;;;;;;;;;;10.13;38.85;102076.03;4420594;32;19995;-72
2022/03/19 07:38:58;;;;;;;;;;;;;;;10.34;38.51;102078.00;4413539;32;20761;-72
2022/03/19 07:44:10;;;;;;;;;;;;;;;10.52;37.94;102076.41;4413561;32;20357;-72
2022/03/19 07:46:38;;;;;;;;;;;;;;;10.86;37.66;102081.63;4398891;32;20009;-72
2022/03/19 07:49:05;;;;;;;;;;;;;;;11.03;36.35;102072.09;4413550;32;20369;-72
2022/03/19 07:51:31;;;;;;;;;;;;;;;11.17;36.16;102078.00;4413513;32;20005;-71
2022/03/19 07:53:59;;;;;;;;;;;;;;;11.25;35.97;102083.53;4413258;32;20060;-72
2022/03/19 07:56:26;;;;;;;;;;;;;;;11.06;35.95;102082.62;4405136;32;20062;-72
2022/03/19 07:58:53;;;;;;;;;;;;;;;10.39;36.70;102094.69;4411049;32;19993;-72
2022/03/19 08:01:20;;;;;;;;;;;;;;;10.48;37.13;102090.00;4420002;32;19994;-73
2022/03/19 08:03:48;;;;;;;;;;;;;;;10.65;36.84;102086.56;4425653;32;19993;-72
2022/03/19 08:06:15;;;;;;;;;;;;;;;10.83;36.64;102098.72;4441502;32;20025;-72
2022/03/19 08:08:42;;;;;;;;;;;;;;;11.11;36.14;102086.34;4443728;32;20000;-73
2022/03/19 08:11:09;;;;;;;;;;;;;;;10.71;36.47;102092.06;4443822;32;19981;-72
2022/03/19 08:13:36;;;;;;;;;;;;;;;11.13;36.40;102095.06;4442219;32;20001;-72
2022/03/19 08:16:03;;;;;;;;;;;;;;;11.33;35.63;102093.47;4442071;32;20004;-72
2022/03/19 08:18:30;;;;;;;;;;;;;;;11.62;35.03;102099.19;4445051;32;19981;-71
2022/03/19 08:20:57;;;;;;;;;;;;;;;11.46;34.98;102094.97;4443144;32;19995;-71
2022/03/19 08:23:24;;;;;;;;;;;;;;;11.59;34.96;102089.56;4450314;32;19981;-72
2022/03/19 08:25:51;;;;;;;;;;;;;;;11.44;35.40;102088.81;4443298;32;19977;-76
2022/03/19 08:28:18;;;;;;;;;;;;;;;11.58;34.90;102095.56;4442005;32;20030;-71
2022/03/19 08:30:44;;;;;;;;;;;;;;;11.44;35.11;102091.41;4427978;32;19995;-77
2022/03/19 08:33:12;;;;;;;;;;;;;;;11.08;35.71;102091.37;4442901;32;20023;-75
2022/03/19 08:35:39;;;;;;;;;;;;;;;11.34;35.32;102089.19;4442689;32;19977;-76
2022/03/19 08:40:52;;;;;;;;;;;;;;;11.51;34.74;102093.47;4430507;32;19981;-72
2022/03/19 08:43:19;;;;;;;;;;;;;;;11.72;34.27;102088.44;4446852;32;20716;-73
2022/03/19 08:45:45;;;;;;;;;;;;;;;11.71;34.91;102083.16;4442543;32;20027;-72
2022/03/19 08:48:13;;;;;;;;;;;;;;;11.81;34.47;102088.00;4448891;32;20012;-71
2022/03/19 08:50:40;;;;;;;;;;;;;;;11.97;34.36;102087.91;4443696;32;19981;-73
2022/03/19 08:53:07;;;;;;;;;;;;;;;12.08;33.87;102089.28;4442922;32;20071;-73
2022/03/19 08:55:34;;;;;;;;;;;;;;;12.14;33.89;102085.22;4449705;32;20263;-72
2022/03/19 08:58:01;;;;;;;;;;;;;;;12.23;33.26;102083.03;4429079;32;19982;-73
2022/03/19 09:00:28;;;;;;;;;;;;;;;12.33;33.32;102085.22;4428753;32;20551;-73
2022/03/19 09:02:58;;;;;;;;;;;;;;;12.35;33.40;102088.78;4370383;32;19985;-72
2022/03/19 09:05:27;;;;;;;;;;;;;;;12.24;33.96;102084.81;4443630;32;20012;-73
2022/03/19 09:07:54;;;;;;;;;;;;;;;11.99;34.19;102083.66;4427315;32;20056;-72
2022/03/19 09:10:21;;;;;;;;;;;;;;;12.38;33.01;102072.44;4443620;32;19997;-72
2022/03/19 09:12:48;;;;;;;;;;;;;;;12.16;34.07;102078.38;4429235;32;19995;-74
2022/03/19 09:15:15;;;;;;;;;;;;;;;12.25;34.57;102082.28;4443422;32;20010;-72
2022/03/19 09:17:42;;;;;;;;;;;;;;;12.31;33.45;102081.66;4442425;32;19985;-72
2022/03/19 09:20:10;;;;;;;;;;;;;;;11.95;33.76;102086.06;4429039;32;19989;-72
2022/03/19 09:22:37;;;;;;;;;;;;;;;11.83;33.78;102081.16;4443297;32;19985;-72
2022/03/19 09:25:04;;;;;;;;;;;;;;;12.08;33.48;102083.22;4442547;32;19985;-72
2022/03/19 09:27:31;;;;;;;;;;;;;;;12.32;32.76;102088.66;4442815;32;20071;-72
2022/03/19 09:29:59;;;;;;;;;;;;;;;12.26;32.37;102089.25;4442750;32;19981;-73
2022/03/19 09:32:26;;;;;;;;;;;;;;;12.33;31.91;102075.72;4442797;32;20003;-73
2022/03/19 09:34:53;;;;;;;;;;;;;;;12.75;32.01;102074.94;4442908;32;19996;-75
2022/03/19 09:37:20;;;;;;;;;;;;;;;12.65;32.03;102077.97;4445090;32;20000;-73
2022/03/19 09:39:49;;;;;;;;;;;;;;;12.89;31.10;102073.84;4430876;32;20247;-73
2022/03/19 09:42:15;;;;;;;;;;;;;;;12.07;32.01;102077.13;4445071;32;20027;-73
2022/03/19 09:44:43;;;;;;;;;;;;;;;11.54;32.47;102080.66;4445032;32;20000;-73
2022/03/19 09:47:11;;;;;;;;;;;;;;;11.93;32.01;102073.00;4444554;32;19989;-73
2022/03/19 09:49:38;;;;;;;;;;;;;;;11.77;32.10;102080.84;4444719;32;20036;-72
2022/03/19 09:52:05;;;;;;;;;;;;;;;11.95;31.88;102086.94;4431132;32;20889;-74
2022/03/19 09:54:32;;;;;;;;;;;;;;;11.98;32.48;102081.91;4445091;32;19978;-74
2022/03/19 09:56:59;;;;;;;;;;;;;;;12.10;32.85;102077.28;4430711;32;20119;-73
2022/03/19 09:59:27;;;;;;;;;;;;;;;12.66;31.02;102079.72;4430433;32;20476;-73
2022/03/19 10:01:54;;;;;;;;;;;;;;;12.51;31.70;102069.56;4444596;32;20324;-76
2022/03/19 10:04:21;;;;;;;;;;;;;;;12.75;31.44;102077.53;4445100;32;20830;-75
2022/03/19 10:09:42;;;;;;;;;;;;;;;12.60;30.65;102071.66;4432582;32;20030;-72
2022/03/19 10:12:13;;;;;;;;;;;;;;;12.50;30.90;102072.97;4430604;32;19985;-72
2022/03/19 10:14:40;;;;;;;;;;;;;;;12.57;30.59;102075.94;4429214;32;20003;-72
2022/03/19 10:17:07;;;;;;;;;;;;;;;12.74;30.93;102063.66;4443381;32;19997;-73
2022/03/19 10:19:48;;;;;;;;;;;;;;;13.12;30.70;102060.91;4444142;32;19993;-73
2022/03/19 10:22:14;;;;;;;;;;;;;;;13.45;29.60;102057.09;4430815;32;20004;-72
2022/03/19 10:24:41;;;;;;;;;;;;;;;13.47;30.22;102060.66;4430193;32;19997;-73
2022/03/19 10:27:16;;;;;;;;;;;;;;;13.92;29.42;102063.25;4444675;32;19981;-76
2022/03/19 10:29:43;;;;;;;;;;;;;;;13.65;29.06;102062.19;4445092;32;20004;-72
2022/03/19 10:32:10;;;;;;;;;;;;;;;13.43;29.07;102057.84;4444829;32;20045;-72
2022/03/19 10:34:42;;;;;;;;;;;;;;;13.07;30.82;102057.22;4430510;32;20023;-71
2022/03/19 10:37:09;;;;;;;;;;;;;;;13.37;30.25;102057.59;4399731;32;20452;-73
2022/03/19 10:39:36;;;;;;;;;;;;;;;13.55;29.72;102052.25;4418157;32;20355;-74
2022/03/19 10:42:03;;;;;;;;;;;;;;;13.57;29.46;102048.88;4443983;32;19997;-73
2022/03/19 10:44:30;;;;;;;;;;;;;;;13.63;28.90;102041.31;4443736;32;20475;-73
2022/03/19 10:46:57;;;;;;;;;;;;;;;13.69;29.28;102041.56;4428636;32;20064;-74
2022/03/19 10:49:25;;;;;;;;;;;;;;;13.67;28.85;102045.81;4444396;32;20004;-73
2022/03/19 10:51:53;;;;;;;;;;;;;;;14.23;28.15;102040.97;4444892;32;20037;-73
2022/03/19 10:54:20;;;;;;;;;;;;;;;14.18;28.10;102047.72;4443442;32;20299;-73
2022/03/19 10:56:47;;;;;;;;;;;;;;;13.99;27.98;102045.28;4444750;32;20007;-72
2022/03/19 10:59:14;;;;;;;;;;;;;;;13.89;28.19;102044.03;4442896;32;19985;-73
2022/03/19 11:01:41;;;;;;;;;;;;;;;13.95;28.75;102039.94;4444770;32;19980;-72
2022/03/19 11:04:09;;;;;;;;;;;;;;;14.46;27.65;102033.97;4443850;32;19981;-74
2022/03/19 11:06:40;;;;;;;;;;;;;;;14.75;26.58;102026.31;4430540;32;19993;-74
2022/03/19 11:09:10;;;;;;;;;;;;;;;14.95;25.65;102019.16;4443701;32;20034;-74
2022/03/19 11:11:57;;;;;;;;;;;;;;;15.09;25.31;102023.09;4443443;32;20009;-73
2022/03/19 11:14:24;;;;;;;;;;;;;;;15.26;23.68;102016.72;4444143;32;20315;-76
2022/03/19 11:17:23;;;;;;;;;;;;;;;14.76;23.66;102008.12;4442247;32;19989;-73
2022/03/19 11:19:42;;;;;;;;;;;;;;;14.87;23.80;102011.97;4443594;32;20836;-74
2022/03/19 11:22:14;;;;;;;;;;;;;;;14.91;23.34;102017.31;4441359;32;20049;-74
2022/03/19 11:24:43;;;;;;;;;;;;;;;15.13;23.37;102003.25;4429944;32;19980;-74
2022/03/19 11:27:10;;;;;;;;;;;;;;;15.12;22.85;101997.13;4442299;32;19985;-73
2022/03/19 11:29:37;;;;;;;;;;;;;;;15.13;22.92;101993.69;4442850;32;20400;-74
2022/03/19 11:32:06;;;;;;;;;;;;;;;15.02;22.40;101984.62;4444054;32;19993;-72
2022/03/19 11:34:43;;;;;;;;;;;;;;;15.02;22.04;101990.72;4444111;32;19983;-75
2022/03/19 11:37:10;;;;;;;;;;;;;;;15.27;22.50;101984.56;4445233;32;19977;-73
2022/03/19 11:39:37;;;;;;;;;;;;;;;15.17;22.97;101984.25;4444404;32;19981;-73
2022/03/19 11:42:09;;;;;;;;;;;;;;;15.39;22.79;101980.56;4443844;32;19989;-73
2022/03/19 11:44:47;;;;;;;;;;;;;;;15.45;22.66;101980.75;4446256;32;20059;-76
2022/03/19 11:47:14;;;;;;;;;;;;;;;14.87;24.10;101969.37;4443964;32;20012;-72
2022/03/19 11:50:02;;;;;;;;;;;;;;;14.85;24.54;101974.53;4439026;32;20422;-72
2022/03/19 11:52:29;;;;;;;;;;;;;;;14.95;22.75;101967.00;4432518;32;19977;-73
2022/03/19 11:55:05;;;;;;;;;;;;;;;14.74;23.44;101970.69;4444281;32;20307;-73
2022/03/19 11:57:47;;;;;;;;;;;;;;;14.84;23.56;101969.28;4442719;32;19982;-73
2022/03/19 12:00:17;;;;;;;;;;;;;;;14.38;25.04;101971.16;4443446;32;20282;-73
2022/03/19 12:03:03;;;;;;;;;;;;;;;14.56;24.73;101964.88;4442665;32;19989;-71
2022/03/19 12:05:31;;;;;;;;;;;;;;;14.62;25.16;101959.84;4442687;32;19981;-74
2022/03/19 12:08:08;;;;;;;;;;;;;;;15.05;24.29;101961.25;4442902;32;20363;-72
2022/03/19 12:10:39;;;;;;;;;;;;;;;15.07;24.18;101956.97;4435826;32;19976;-71
2022/03/19 12:13:25;;;;;;;;;;;;;;;14.96;24.60;101955.72;4444722;32;19985;-73
2022/03/19 12:15:55;;;;;;;;;;;;;;;14.67;24.57;101960.88;4442956;32;20287;-72
2022/03/19 12:18:23;;;;;;;;;;;;;;;15.13;23.75;101951.94;4441571;32;20004;-72
2022/03/19 12:20:50;;;;;;;;;;;;;;;15.21;23.33;101950.44;4428699;32;20020;-72
2022/03/19 12:23:17;;;;;;;;;;;;;;;15.55;23.68;101946.25;4441318;32;20022;-72
2022/03/19 12:25:48;;;;;;;;;;;;;;;15.69;22.97;101942.34;4443194;32;19988;-72
2022/03/19 12:28:18;;;;;;;;;;;;;;;15.49;22.39;101940.84;4441684;32;20035;-74
2022/03/19 12:30:45;;;;;;;;;;;;;;;15.40;22.90;101941.47;4441989;32;19985;-72
2022/03/19 12:33:11;;;;;;;;;;;;;;;15.48;22.86;101949.53;4436328;32;20053;-73
2022/03/19 12:35:39;;;;;;;;;;;;;;;15.65;22.69;101948.28;4439156;32;20030;-71
2022/03/19 12:38:06;;;;;;;;;;;;;;;15.60;22.57;101949.88;4434900;32;19989;-71
2022/03/19 12:43:20;;;;;;;;;;;;;;;15.73;22.01;101946.84;4426897;32;20548;-72
2022/03/19 12:45:50;;;;;;;;;;;;;;;15.41;22.16;101942.34;4130876;32;10004062;-71
2022/03/19 12:48:18;;;;;;;;;;;;;;;15.43;22.82;101936.34;4411449;32;20462;-72
2022/03/19 12:50:53;;;;;;;;;;;;;;;15.50;22.27;101945.22;4410802;32;20444;-72
2022/03/19 12:53:39;;;;;;;;;;;;;;;15.63;22.34;101928.19;4412685;32;20042;-71
2022/03/19 12:56:10;;;;;;;;;;;;;;;15.65;22.38;101931.75;4436059;32;21057;-71
2022/03/19 12:58:37;;;;;;;;;;;;;;;15.89;21.83;101932.50;4457221;32;19988;-71
2022/03/19 13:01:07;;;;;;;;;;;;;;;16.03;21.48;101932.88;4458689;32;20041;-72
2022/03/19 13:03:34;;;;;;;;;;;;;;;15.96;21.15;101930.94;4456633;32;20455;-73
2022/03/19 13:06:02;;;;;;;;;;;;;;;15.54;21.94;101934.06;4457048;32;19981;-72